Time;durP1;ratioP1;P1;durP2;ratioP2;P2;SDS_P1;SDS_P2;PMS_P1;PMS_P2;Temp;Humidity;BMP_temperature;BMP_pressure;BME280_temperature;BME280_humidity;BME280_pressure;Samples;Min_cycle;Max_cycle;Signal;HPM_P1;HPM_P2
2023/09/16 00:02:02;;;;;;;9.13;7.63;;;;;;;23.93;72.03;99756.47;5070465;28;20602;-60
2023/09/16 00:04:29;;;;;;;8.33;7.77;;;;;;;23.81;72.45;99749.72;5070003;28;20743;-60
2023/09/16 00:06:57;;;;;;;8.53;7.97;;;;;;;23.63;74.18;99748.41;5070201;28;20713;-60
2023/09/16 00:09:24;;;;;;;8.20;7.57;;;;;;;23.55;74.28;99748.94;5070104;28;20206;-60
2023/09/16 00:11:51;;;;;;;8.53;7.73;;;;;;;23.52;74.42;99744.06;5070118;28;20198;-60
2023/09/16 00:14:18;;;;;;;8.77;8.07;;;;;;;23.47;75.32;99752.22;5070574;28;20197;-60
2023/09/16 00:16:45;;;;;;;8.73;7.90;;;;;;;23.55;74.81;99757.09;5070262;28;20206;-60
2023/09/16 00:19:12;;;;;;;9.23;8.50;;;;;;;23.58;74.89;99753.84;5070588;28;20228;-60
2023/09/16 00:21:40;;;;;;;8.70;8.10;;;;;;;23.55;75.09;99748.13;5070933;28;20197;-60
2023/09/16 00:24:11;;;;;;;9.20;8.53;;;;;;;23.50;75.36;99743.53;5070400;28;20198;-60
2023/09/16 00:26:39;;;;;;;9.77;8.80;;;;;;;23.44;75.76;99744.63;5069779;28;20654;-60
2023/09/16 00:29:06;;;;;;;9.07;8.33;;;;;;;23.39;76.40;99741.09;5071147;28;20194;-60
2023/09/16 00:31:34;;;;;;;9.83;8.10;;;;;;;23.38;76.89;99750.31;5072595;28;20295;-59
2023/09/16 00:34:00;;;;;;;11.77;9.17;;;;;;;23.39;76.88;99752.78;5074488;28;20285;-60
2023/09/16 00:36:27;;;;;;;9.20;8.50;;;;;;;23.37;76.72;99754.97;5074180;28;20192;-60
2023/09/16 00:38:54;;;;;;;8.93;8.23;;;;;;;23.39;76.87;99758.19;5074103;28;20293;-60
2023/09/16 00:41:22;;;;;;;9.33;8.63;;;;;;;23.41;76.90;99760.63;5074302;28;20281;-60
2023/09/16 00:43:49;;;;;;;10.47;9.43;;;;;;;23.41;76.65;99761.47;5073604;28;20225;-60
2023/09/16 00:46:15;;;;;;;9.87;8.97;;;;;;;23.36;76.73;99752.50;5073729;28;20217;-60
2023/09/16 00:48:45;;;;;;;8.93;8.23;;;;;;;23.34;77.02;99760.91;5073117;28;20228;-60
2023/09/16 00:51:14;;;;;;;8.60;8.07;;;;;;;23.26;77.24;99757.94;5073817;28;20628;-60
2023/09/16 00:53:42;;;;;;;10.10;9.20;;;;;;;23.22;77.53;99765.78;5074003;28;20283;-59
2023/09/16 00:56:09;;;;;;;8.73;7.63;;;;;;;23.08;78.65;99756.53;5074639;28;20189;-59
2023/09/16 00:58:38;;;;;;;10.30;9.50;;;;;;;22.93;78.58;99753.84;5074117;28;20256;-59
2023/09/16 01:01:04;;;;;;;12.33;10.50;;;;;;;22.87;79.23;99754.09;5073817;28;20185;-60
2023/09/16 01:03:35;;;;;;;11.07;9.93;;;;;;;22.86;79.58;99760.56;5074249;28;20220;-60
2023/09/16 01:06:04;;;;;;;12.07;11.00;;;;;;;22.79;79.38;99765.47;5074185;28;20188;-60
2023/09/16 01:08:31;;;;;;;12.23;10.67;;;;;;;22.64;80.01;99765.41;5073553;28;20192;-60
2023/09/16 01:10:58;;;;;;;10.43;9.67;;;;;;;22.50;80.48;99778.66;5073741;28;20204;-60
2023/09/16 01:13:25;;;;;;;10.90;9.90;;;;;;;22.27;81.24;99783.69;5073931;28;20253;-60
2023/09/16 01:16:00;;;;;;;10.73;9.93;;;;;;;22.12;82.65;99792.56;5073614;28;20189;-59
2023/09/16 01:18:33;;;;;;;9.60;8.80;;;;;;;21.78;82.98;99785.88;5074032;28;20268;-60
2023/09/16 01:21:01;;;;;;;11.07;10.00;;;;;;;21.59;84.77;99803.56;5073086;28;20601;-60
2023/09/16 01:23:27;;;;;;;11.30;9.67;;;;;;;21.56;85.20;99800.56;5073563;28;20223;-60
2023/09/16 01:25:55;;;;;;;8.90;8.30;;;;;;;21.57;85.13;99807.59;5073107;28;20246;-60
2023/09/16 01:28:24;;;;;;;10.67;9.17;;;;;;;21.56;85.99;99809.47;5072793;28;20188;-60
2023/09/16 01:30:55;;;;;;;10.70;9.27;;;;;;;21.67;85.11;99808.47;5086753;28;20666;-60
2023/09/16 01:33:24;;;;;;;9.07;8.27;;;;;;;21.83;86.17;99812.94;5092713;28;20196;-61
2023/09/16 01:35:59;;;;;;;9.70;8.83;;;;;;;22.04;84.97;99820.09;5112427;28;20195;-60
2023/09/16 01:38:27;;;;;;;11.13;10.00;;;;;;;22.12;83.62;99825.03;5111939;28;20626;-60
2023/09/16 01:40:57;;;;;;;10.53;9.73;;;;;;;22.14;83.98;99831.00;5095220;28;20232;-60
2023/09/16 01:43:25;;;;;;;11.77;9.60;;;;;;;22.19;83.70;99833.72;5091989;28;20288;-61
2023/09/16 01:45:53;;;;;;;11.17;10.10;;;;;;;22.24;83.16;99841.88;5092042;28;20191;-60
2023/09/16 01:48:19;;;;;;;11.90;10.77;;;;;;;22.34;83.86;99833.78;5091904;28;20244;-59
2023/09/16 01:50:46;;;;;;;10.87;9.77;;;;;;;22.54;82.76;99835.81;5089644;28;20187;-61
2023/09/16 01:53:13;;;;;;;11.07;10.10;;;;;;;22.63;83.21;99835.03;5091710;28;20631;-60
2023/09/16 01:55:39;;;;;;;10.97;10.03;;;;;;;22.68;82.14;99837.75;5092030;28;20191;-60
2023/09/16 01:58:08;;;;;;;12.83;11.67;;;;;;;22.64;82.44;99831.25;5093569;28;20282;-59
2023/09/16 02:00:35;;;;;;;13.53;12.13;;;;;;;22.55;83.00;99826.59;5091921;28;20242;-60
2023/09/16 02:03:02;;;;;;;13.53;11.93;;;;;;;22.44;83.97;99820.31;5093046;28;20280;-60
2023/09/16 02:05:30;;;;;;;14.07;12.43;;;;;;;22.31;84.61;99815.38;5092975;28;20191;-60
2023/09/16 02:07:57;;;;;;;15.27;11.63;;;;;;;22.23;86.21;99824.00;5084285;28;20192;-60
2023/09/16 02:10:24;;;;;;;11.60;10.50;;;;;;;22.35;85.52;99823.78;5072977;28;20198;-60
2023/09/16 02:12:51;;;;;;;13.77;12.37;;;;;;;22.49;84.44;99816.81;5081681;28;20195;-60
2023/09/16 02:15:19;;;;;;;12.30;11.33;;;;;;;22.66;84.23;99815.53;5093163;28;20206;-60
2023/09/16 02:17:46;;;;;;;13.23;11.77;;;;;;;22.83;83.07;99807.19;5092298;28;20245;-59
2023/09/16 02:20:13;;;;;;;13.90;11.20;;;;;;;22.98;82.20;99812.63;5092703;28;20195;-60
2023/09/16 02:22:41;;;;;;;13.53;12.50;;;;;;;23.15;81.07;99811.28;5092434;28;20311;-60
2023/09/16 02:25:08;;;;;;;14.73;12.33;;;;;;;23.19;81.18;99800.75;5080364;28;20589;-60
2023/09/16 02:27:35;;;;;;;14.87;13.57;;;;;;;23.19;81.14;99806.16;5071890;28;20554;-60
2023/09/16 02:30:02;;;;;;;14.10;12.90;;;;;;;23.05;81.81;99810.47;5071665;28;20195;-60
2023/09/16 02:32:30;;;;;;;13.57;12.27;;;;;;;22.98;82.56;99816.16;5073669;28;20690;-60
2023/09/16 02:34:57;;;;;;;12.53;11.37;;;;;;;22.99;82.92;99809.66;5091777;28;20238;-60
2023/09/16 02:37:23;;;;;;;13.53;12.33;;;;;;;23.12;82.09;99809.13;5091728;28;20192;-60
2023/09/16 02:39:50;;;;;;;12.20;11.33;;;;;;;23.27;81.13;99800.25;5092291;28;20718;-60
2023/09/16 02:42:17;;;;;;;14.43;11.87;;;;;;;23.36;80.11;99795.91;5091374;28;20281;-60
2023/09/16 02:44:44;;;;;;;14.20;12.80;;;;;;;23.45;79.45;99807.81;5072676;28;20225;-60
2023/09/16 02:47:11;;;;;;;12.87;11.67;;;;;;;23.39;80.84;99798.03;5071831;28;20255;-60
2023/09/16 02:49:40;;;;;;;12.23;11.30;;;;;;;23.45;79.82;99805.09;5072444;28;20241;-60
2023/09/16 02:52:07;;;;;;;13.97;12.63;;;;;;;23.49;79.66;99806.97;5072110;28;20264;-60
2023/09/16 02:54:33;;;;;;;12.37;11.47;;;;;;;23.51;79.48;99799.41;5072750;28;20274;-60
2023/09/16 02:57:00;;;;;;;13.53;12.33;;;;;;;23.56;79.40;99799.38;5091051;28;20189;-60
2023/09/16 02:59:27;;;;;;;11.90;10.73;;;;;;;23.64;78.71;99804.28;5092353;28;20189;-60
2023/09/16 03:01:53;;;;;;;13.57;12.37;;;;;;;23.72;78.86;99803.72;5091905;28;20205;-60
2023/09/16 03:04:20;;;;;;;14.13;12.83;;;;;;;23.76;78.31;99807.50;5091933;28;20222;-60
2023/09/16 03:06:48;;;;;;;13.60;12.30;;;;;;;23.78;78.40;99809.94;5090696;28;20197;-60
2023/09/16 03:09:17;;;;;;;16.97;13.30;;;;;;;23.75;78.59;99807.78;5071187;28;20264;-60
2023/09/16 03:11:43;;;;;;;18.23;13.63;;;;;;;23.69;78.77;99801.53;5071785;28;20310;-60
2023/09/16 03:14:10;;;;;;;16.27;12.97;;;;;;;23.63;79.33;99791.81;5071220;28;20197;-60
2023/09/16 03:16:37;;;;;;;17.90;13.47;;;;;;;23.57;79.66;99795.59;5071133;28;20262;-60
2023/09/16 03:19:04;;;;;;;14.73;12.40;;;;;;;23.48;80.34;99799.94;5070672;28;20189;-60
2023/09/16 03:21:30;;;;;;;19.37;14.03;;;;;;;23.41;80.65;99794.00;5070910;28;20280;-60
2023/09/16 03:23:58;;;;;;;15.27;13.03;;;;;;;23.32;81.09;99784.75;5070928;28;20266;-60
2023/09/16 03:26:26;;;;;;;17.83;13.20;;;;;;;23.24;81.58;99788.00;5070861;28;20513;-60
2023/09/16 03:28:54;;;;;;;15.83;14.10;;;;;;;23.19;82.01;99787.19;5071008;28;20191;-60
2023/09/16 03:31:21;;;;;;;14.77;12.60;;;;;;;23.14;82.46;99793.41;5070932;28;20209;-60
2023/09/16 03:33:48;;;;;;;19.97;13.43;;;;;;;23.16;83.10;99787.72;5073243;28;20691;-61
2023/09/16 03:36:14;;;;;;;17.53;13.43;;;;;;;23.25;82.17;99800.50;5080769;28;20186;-60
2023/09/16 03:38:46;;;;;;;14.13;12.63;;;;;;;23.41;81.58;99802.13;5078586;28;20192;-61
2023/09/16 03:41:15;;;;;;;14.70;13.33;;;;;;;23.50;80.53;99808.63;5080106;28;20217;-60
2023/09/16 03:43:41;;;;;;;14.23;12.37;;;;;;;23.54;80.61;99804.28;5081176;28;20299;-61
2023/09/16 03:46:08;;;;;;;17.33;13.73;;;;;;;23.52;80.59;99794.81;5079124;28;20194;-60
2023/09/16 03:48:35;;;;;;;22.23;13.80;;;;;;;23.45;80.81;99805.94;5081506;28;20264;-60
2023/09/16 03:51:06;;;;;;;15.27;13.70;;;;;;;23.37;81.22;99795.63;5079840;28;20709;-60
2023/09/16 03:53:33;;;;;;;16.20;12.83;;;;;;;23.22;81.49;99795.63;5079284;28;20193;-60
2023/09/16 03:56:00;;;;;;;17.10;13.73;;;;;;;23.21;81.66;99795.88;5082218;28;20194;-60
2023/09/16 03:58:28;;;;;;;15.03;13.47;;;;;;;23.13;81.85;99791.78;5079057;28;20246;-60
2023/09/16 04:00:54;;;;;;;16.03;13.40;;;;;;;23.10;82.22;99800.44;5081082;28;20239;-60
2023/09/16 04:03:21;;;;;;;15.67;13.83;;;;;;;23.09;82.10;99801.53;5079097;28;20207;-60
2023/09/16 04:05:48;;;;;;;22.00;13.53;;;;;;;23.12;82.00;99802.91;5083833;28;20189;-60
2023/09/16 04:08:14;;;;;;;16.10;13.63;;;;;;;23.09;81.94;99806.13;5085254;28;20193;-59
2023/09/16 04:10:41;;;;;;;13.80;12.50;;;;;;;23.05;81.89;99814.00;5085686;28;20257;-60
2023/09/16 04:13:08;;;;;;;13.20;12.00;;;;;;;23.05;82.03;99815.88;5083751;28;20188;-59
2023/09/16 04:15:36;;;;;;;17.50;12.83;;;;;;;23.03;81.93;99816.16;5084028;28;20660;-60
2023/09/16 04:18:03;;;;;;;15.40;13.30;;;;;;;23.02;82.07;99821.84;5085092;28;20210;-60
2023/09/16 04:20:29;;;;;;;20.67;12.97;;;;;;;23.03;82.24;99821.56;5082759;28;20189;-60
2023/09/16 04:22:56;;;;;;;14.67;12.87;;;;;;;23.11;82.43;99826.47;5093946;28;20580;-60
2023/09/16 04:25:23;;;;;;;14.00;12.67;;;;;;;23.25;82.97;99833.03;5093190;28;20579;-61
2023/09/16 04:27:49;;;;;;;22.47;13.70;;;;;;;23.49;80.79;99830.59;5084576;28;20395;-60
2023/09/16 04:30:16;;;;;;;22.80;13.43;;;;;;;23.67;79.85;99828.16;5083894;28;20254;-60
2023/09/16 04:32:44;;;;;;;19.63;13.10;;;;;;;23.82;79.15;99828.13;5086234;28;20271;-60
2023/09/16 04:35:11;;;;;;;16.87;15.13;;;;;;;23.91;78.30;99831.13;5086635;28;20243;-60
2023/09/16 04:37:37;;;;;;;16.70;14.93;;;;;;;23.91;78.35;99825.69;5082270;28;20275;-60
2023/09/16 04:40:09;;;;;;;14.73;13.10;;;;;;;23.93;77.96;99831.69;5079139;28;20218;-60
2023/09/16 04:42:37;;;;;;;40.83;31.03;;;;;;;23.94;77.42;99827.88;5086246;28;20252;-61
2023/09/16 04:45:04;;;;;;;37.93;34.20;;;;;;;23.88;77.31;99832.44;5087138;28;20224;-60
2023/09/16 04:47:31;;;;;;;36.23;31.47;;;;;;;23.82;77.10;99830.03;5086457;28;20196;-61
2023/09/16 04:49:59;;;;;;;32.67;29.37;;;;;;;23.82;77.31;99833.56;5085066;28;20187;-60
2023/09/16 04:52:27;;;;;;;43.07;32.67;;;;;;;23.82;77.68;99828.13;5084941;28;20720;-60
2023/09/16 04:54:54;;;;;;;21.77;19.43;;;;;;;23.84;77.40;99823.22;5093072;28;20233;-60
2023/09/16 04:57:21;;;;;;;14.73;13.10;;;;;;;23.89;76.89;99822.44;5093486;28;20634;-62
2023/09/16 04:59:48;;;;;;;18.00;13.43;;;;;;;24.02;77.22;99836.25;5080282;28;20194;-62
2023/09/16 05:02:15;;;;;;;12.07;11.03;;;;;;;24.17;77.27;99829.97;5073598;28;20198;-63
2023/09/16 05:04:42;;;;;;;13.87;11.10;;;;;;;24.37;76.39;99838.88;5072368;28;20276;-62
2023/09/16 05:07:10;;;;;;;16.00;11.20;;;;;;;24.65;75.48;99843.69;5075118;28;20190;-72
2023/09/16 05:09:37;;;;;;;11.77;10.43;;;;;;;24.85;73.56;99846.28;5092896;28;20194;-70
2023/09/16 05:12:04;;;;;;;10.63;9.90;;;;;;;25.00;72.93;99846.19;5093328;28;20672;-65
2023/09/16 05:14:31;;;;;;;15.47;9.53;;;;;;;25.25;72.08;99850.66;5093901;28;20199;-65
2023/09/16 05:16:57;;;;;;;11.17;10.30;;;;;;;25.47;70.79;99861.16;5090828;28;20250;-64
2023/09/16 05:19:24;;;;;;;11.57;9.47;;;;;;;25.62;70.09;99856.38;5093468;28;20195;-64
2023/09/16 05:21:51;;;;;;;14.10;11.00;;;;;;;25.75;69.26;99863.88;5093279;28;20188;-64
2023/09/16 05:24:19;;;;;;;10.60;9.00;;;;;;;25.75;69.27;99863.06;5093376;28;20287;-64
2023/09/16 05:26:45;;;;;;;11.43;9.87;;;;;;;25.74;68.41;99873.16;5089960;28;20195;-65
2023/09/16 05:29:12;;;;;;;11.10;9.90;;;;;;;25.77;69.20;99872.59;5092608;28;20231;-66
2023/09/16 05:31:39;;;;;;;11.53;10.43;;;;;;;25.86;68.51;99878.22;5093205;28;20195;-65
2023/09/16 05:34:06;;;;;;;11.37;10.17;;;;;;;25.90;68.30;99882.81;5093915;28;20627;-64
2023/09/16 05:36:33;;;;;;;12.53;8.90;;;;;;;26.00;68.03;99882.75;5105294;28;20199;-64
2023/09/16 05:39:01;;;;;;;14.93;10.03;;;;;;;26.11;67.41;99888.91;5090345;28;20244;-65
2023/09/16 05:41:29;;;;;;;15.50;10.77;;;;;;;26.18;66.98;99890.19;5092048;28;20245;-63
2023/09/16 05:43:56;;;;;;;13.23;10.23;;;;;;;26.21;66.95;99894.25;5091956;28;20309;-66
2023/09/16 05:46:23;;;;;;;15.80;9.30;;;;;;;26.26;66.46;99896.94;5085767;28;20249;-67
2023/09/16 05:48:50;;;;;;;11.70;9.93;;;;;;;26.32;65.89;99907.47;5072748;28;20265;-61
2023/09/16 05:51:17;;;;;;;13.50;9.80;;;;;;;26.32;65.83;99906.66;5098754;28;20233;-65
2023/09/16 05:53:44;;;;;;;13.93;10.33;;;;;;;26.33;65.40;99900.91;5112974;28;20713;-63
2023/09/16 05:56:10;;;;;;;12.20;9.80;;;;;;;26.38;65.33;99905.50;5098112;28;20183;-65
2023/09/16 05:58:39;;;;;;;11.30;9.73;;;;;;;26.38;65.01;99917.19;5092870;28;20249;-63
2023/09/16 06:01:05;;;;;;;11.40;10.20;;;;;;;26.41;64.63;99924.00;5092540;28;20624;-63
2023/09/16 06:03:32;;;;;;;14.47;10.90;;;;;;;26.41;64.75;99921.28;5092517;28;20562;-70
2023/09/16 06:05:59;;;;;;;11.50;10.30;;;;;;;26.40;64.07;99925.91;5086175;28;20204;-71
2023/09/16 06:08:26;;;;;;;10.43;9.50;;;;;;;26.41;64.39;99937.66;5081799;28;20279;-69
2023/09/16 06:10:53;;;;;;;11.80;10.33;;;;;;;26.38;64.24;99938.22;5082836;28;20184;-69
2023/09/16 06:13:19;;;;;;;11.03;10.00;;;;;;;26.28;64.70;99943.75;5081133;28;20188;-68
2023/09/16 06:15:47;;;;;;;10.83;9.80;;;;;;;26.24;64.61;99940.78;5080677;28;20667;-68
2023/09/16 06:18:14;;;;;;;13.70;12.30;;;;;;;26.14;66.13;99946.34;5082010;28;20192;-63
2023/09/16 06:20:41;;;;;;;14.07;11.90;;;;;;;25.99;67.15;99937.47;5083772;28;20183;-63
2023/09/16 06:23:08;;;;;;;13.00;11.67;;;;;;;25.93;68.37;99936.69;5080217;28;20187;-62
2023/09/16 06:25:35;;;;;;;15.23;11.97;;;;;;;25.95;68.15;99950.03;5080018;28;20882;-63
2023/09/16 06:28:03;;;;;;;14.00;12.57;;;;;;;25.98;68.48;99957.66;5082778;28;20266;-63
2023/09/16 06:30:31;;;;;;;17.67;13.07;;;;;;;25.98;68.64;99961.19;5081247;28;20988;-63
2023/09/16 06:32:59;;;;;;;14.37;12.73;;;;;;;25.94;69.31;99960.13;5092857;28;20196;-63
2023/09/16 06:35:26;;;;;;;13.33;11.77;;;;;;;25.96;69.41;99957.94;5092169;28;20225;-63
2023/09/16 06:37:52;;;;;;;16.43;14.87;;;;;;;25.99;69.44;99970.16;5092551;28;20203;-63
2023/09/16 06:40:20;;;;;;;15.87;13.87;;;;;;;25.73;70.98;99963.25;5091349;28;20215;-63
2023/09/16 06:42:46;;;;;;;16.80;13.23;;;;;;;25.60;72.13;99969.34;5091193;28;20195;-63
2023/09/16 06:45:13;;;;;;;14.10;12.57;;;;;;;25.50;72.57;99974.81;5088294;28;20227;-63
2023/09/16 06:47:40;;;;;;;13.67;12.57;;;;;;;25.50;73.20;99980.28;5083013;28;20951;-63
2023/09/16 06:50:09;;;;;;;14.13;12.77;;;;;;;25.50;72.66;99972.94;5081267;28;20192;-63
2023/09/16 06:52:37;;;;;;;17.00;14.60;;;;;;;25.21;75.07;99976.59;5079570;28;20191;-63
2023/09/16 06:55:04;;;;;;;22.50;15.07;;;;;;;24.91;76.23;99972.91;5082101;28;20280;-63
2023/09/16 06:57:31;;;;;;;17.27;15.47;;;;;;;24.67;77.78;99971.13;5079736;28;20254;-63
2023/09/16 06:59:58;;;;;;;16.63;13.60;;;;;;;24.40;80.14;99982.28;5086793;28;20190;-63
2023/09/16 07:02:24;;;;;;;21.10;15.33;;;;;;;24.16;80.35;99981.22;5085406;28;20195;-63
2023/09/16 07:04:51;;;;;;;16.77;15.27;;;;;;;24.04;80.43;99991.53;5082762;28;20644;-63
2023/09/16 07:07:20;;;;;;;16.13;14.63;;;;;;;23.81;81.37;99994.72;5087106;28;20187;-63
2023/09/16 07:09:46;;;;;;;14.87;13.20;;;;;;;23.80;82.97;99993.09;5071345;28;20209;-63
2023/09/16 07:12:13;;;;;;;14.73;13.27;;;;;;;23.87;83.03;99999.09;5080171;28;20286;-63
2023/09/16 07:14:40;;;;;;;19.50;14.83;;;;;;;23.93;82.35;100003.44;5084383;28;20201;-63
2023/09/16 07:17:07;;;;;;;19.00;16.20;;;;;;;23.82;83.53;100001.81;5084790;28;20247;-61
2023/09/16 07:19:34;;;;;;;21.43;15.77;;;;;;;23.54;84.73;100002.28;5078321;28;20221;-61
2023/09/16 07:22:01;;;;;;;18.17;15.47;;;;;;;23.48;86.72;100000.63;5070954;28;20277;-63
2023/09/16 07:24:30;;;;;;;19.33;17.27;;;;;;;23.43;87.12;100003.34;5069987;28;20317;-62
2023/09/16 07:26:56;;;;;;;16.43;14.73;;;;;;;23.53;87.52;100003.34;5071379;28;20642;-62
2023/09/16 07:29:23;;;;;;;18.83;15.77;;;;;;;23.57;87.33;100009.88;5069196;28;20622;-62
2023/09/16 07:31:50;;;;;;;22.83;15.07;;;;;;;23.77;85.54;100009.91;5071342;28;20613;-62
2023/09/16 07:34:19;;;;;;;19.40;17.47;;;;;;;24.05;84.07;100008.63;5074364;28;20238;-62
2023/09/16 07:36:46;;;;;;;16.20;14.60;;;;;;;24.21;84.15;100010.25;5080811;28;20663;-62
2023/09/16 07:39:13;;;;;;;15.87;14.57;;;;;;;24.16;84.25;100008.34;5074443;28;20270;-63
2023/09/16 07:41:41;;;;;;;14.63;13.47;;;;;;;24.16;84.92;100008.34;5075336;28;20317;-62
2023/09/16 07:44:08;;;;;;;16.37;14.87;;;;;;;24.21;83.74;100008.34;5110958;28;20699;-62
2023/09/16 07:46:35;;;;;;;18.60;14.40;;;;;;;24.18;84.22;100014.31;5110426;28;20817;-62
2023/09/16 07:49:02;;;;;;;16.27;14.77;;;;;;;24.07;83.54;100014.59;5108199;27;20260;-63
2023/09/16 07:51:28;;;;;;;16.83;15.53;;;;;;;23.95;85.25;100020.28;5090279;28;20570;-62
2023/09/16 07:53:55;;;;;;;16.87;15.17;;;;;;;23.89;84.88;100017.81;5090842;28;20611;-62
2023/09/16 07:56:22;;;;;;;16.43;14.87;;;;;;;23.85;84.89;100022.94;5090916;28;20577;-62
2023/09/16 07:58:50;;;;;;;14.90;13.30;;;;;;;23.87;83.94;100025.41;5077631;28;20204;-62
2023/09/16 08:01:16;;;;;;;13.60;12.50;;;;;;;23.71;85.06;100021.84;5070981;28;20203;-62
2023/09/16 08:03:43;;;;;;;15.43;14.07;;;;;;;23.72;84.18;100028.06;5071314;28;20258;-62
2023/09/16 08:06:13;;;;;;;18.70;13.17;;;;;;;23.83;84.20;100025.13;5070512;28;20225;-62
2023/09/16 08:08:39;;;;;;;17.67;13.63;;;;;;;23.81;84.06;100027.28;5073408;28;20199;-62
2023/09/16 08:11:06;;;;;;;15.57;13.70;;;;;;;23.80;84.07;100024.84;5077555;28;20254;-63
2023/09/16 08:13:33;;;;;;;16.27;13.87;;;;;;;23.68;83.43;100035.16;5084041;28;20262;-63
2023/09/16 08:16:02;;;;;;;13.43;11.90;;;;;;;23.59;85.28;100029.41;5081972;28;20204;-63
2023/09/16 08:18:29;;;;;;;15.70;13.30;;;;;;;23.86;83.07;100030.03;5080276;28;20269;-63
2023/09/16 08:20:55;;;;;;;14.63;12.97;;;;;;;24.04;83.22;100032.25;5079731;28;20281;-63
2023/09/16 08:23:22;;;;;;;13.30;12.03;;;;;;;24.26;80.99;100034.69;5081766;28;20201;-63
2023/09/16 08:25:49;;;;;;;15.47;13.30;;;;;;;24.45;81.23;100036.59;5083408;28;21131;-63
2023/09/16 08:28:15;;;;;;;14.97;13.47;;;;;;;24.57;79.78;100041.72;5084386;28;20191;-64
2023/09/16 08:30:42;;;;;;;20.03;13.03;;;;;;;24.43;80.53;100040.66;5084995;28;20267;-63
2023/09/16 08:33:10;;;;;;;13.53;12.23;;;;;;;24.28;82.23;100046.91;5083533;28;20256;-63
2023/09/16 08:35:37;;;;;;;15.17;13.73;;;;;;;24.36;81.16;100040.94;5084604;28;20210;-63
2023/09/16 08:38:04;;;;;;;14.23;13.13;;;;;;;24.43;82.25;100046.09;5085033;28;20271;-63
2023/09/16 08:40:32;;;;;;;14.73;13.43;;;;;;;24.28;83.30;100048.81;5084898;28;20258;-63
2023/09/16 08:43:11;;;;;;;14.07;12.70;;;;;;;24.13;84.09;100044.19;5084767;28;20200;-63
2023/09/16 08:45:44;;;;;;;20.03;13.23;;;;;;;24.11;85.00;100040.94;5082158;28;20221;-63
2023/09/16 08:48:16;;;;;;;17.23;13.13;;;;;;;24.00;84.07;100042.00;5085773;28;20240;-63
2023/09/16 08:50:44;;;;;;;16.40;12.83;;;;;;;23.95;84.92;100041.19;5084208;28;20269;-62
2023/09/16 08:53:12;;;;;;;13.40;12.23;;;;;;;24.05;84.72;100041.22;5085062;28;20193;-62
2023/09/16 08:55:39;;;;;;;14.57;13.20;;;;;;;24.14;84.57;100034.94;5086873;28;20654;-63
2023/09/16 08:58:08;;;;;;;22.73;14.83;;;;;;;24.26;84.33;100038.22;5086333;28;20206;-62
2023/09/16 09:00:36;;;;;;;16.30;14.60;;;;;;;24.39;83.62;100029.50;5085981;28;20637;-63
2023/09/16 09:03:02;;;;;;;15.87;14.37;;;;;;;24.50;85.70;100020.28;5086865;28;20202;-63
2023/09/16 09:05:32;;;;;;;15.77;14.40;;;;;;;24.64;84.00;100020.56;5084820;28;20227;-63
2023/09/16 09:07:59;;;;;;;14.77;13.27;;;;;;;24.63;82.79;100014.31;5084748;28;20199;-63
2023/09/16 09:10:26;;;;;;;13.80;12.60;;;;;;;24.67;82.35;100020.81;5082370;28;20663;-62
2023/09/16 09:12:54;;;;;;;22.63;13.70;;;;;;;24.67;81.83;100009.16;5085901;28;20232;-63
2023/09/16 09:15:22;;;;;;;14.60;13.23;;;;;;;24.80;83.39;100003.94;5084446;28;20206;-64
2023/09/16 09:17:51;;;;;;;14.13;12.83;;;;;;;24.93;80.33;100002.53;5085346;28;20203;-63
2023/09/16 09:20:20;;;;;;;13.73;12.37;;;;;;;24.96;79.82;100002.78;5082157;28;20203;-63
2023/09/16 09:22:50;;;;;;;14.10;12.83;;;;;;;24.97;79.57;100003.63;5080693;28;20200;-63
2023/09/16 09:25:21;;;;;;;14.63;12.40;;;;;;;24.90;80.19;99995.75;5079860;28;20288;-64
2023/09/16 09:27:48;;;;;;;14.57;13.07;;;;;;;24.96;80.43;100005.50;5080120;28;20517;-63
2023/09/16 09:30:15;;;;;;;13.03;11.80;;;;;;;24.98;79.24;100002.53;5085271;28;20187;-63
2023/09/16 09:32:44;;;;;;;12.53;11.40;;;;;;;25.03;83.65;99997.06;5085788;28;20197;-63
2023/09/16 09:35:12;;;;;;;12.83;11.73;;;;;;;25.07;81.21;100008.22;5088345;28;20205;-66
2023/09/16 09:37:39;;;;;;;13.20;11.90;;;;;;;25.22;81.54;99997.25;5085814;28;20336;-66
2023/09/16 09:40:09;;;;;;;13.53;12.23;;;;;;;25.41;79.86;99999.09;5085110;28;20254;-68
2023/09/16 09:42:40;;;;;;;13.03;12.00;;;;;;;25.40;77.55;99999.38;5087750;28;20191;-68
2023/09/16 09:45:08;;;;;;;14.40;13.30;;;;;;;25.21;76.10;99999.19;5087421;28;20218;-66
2023/09/16 09:47:35;;;;;;;15.23;13.40;;;;;;;25.11;77.95;99996.47;5087277;28;20296;-65
2023/09/16 09:50:03;;;;;;;14.77;13.53;;;;;;;24.99;79.23;99987.84;5087167;28;20192;-66
2023/09/16 09:52:31;;;;;;;14.20;13.17;;;;;;;24.98;79.39;99995.19;5072804;28;20187;-66
2023/09/16 09:54:58;;;;;;;14.60;12.90;;;;;;;25.01;79.95;100004.69;5077594;28;20191;-64
2023/09/16 09:57:27;;;;;;;14.03;12.93;;;;;;;25.18;80.06;100009.81;5080203;28;20222;-70
2023/09/16 09:59:54;;;;;;;13.67;12.57;;;;;;;25.23;77.98;100007.06;5082774;28;20553;-69
2023/09/16 10:02:24;;;;;;;12.43;11.27;;;;;;;25.40;77.56;100002.09;5080383;28;20442;-70
2023/09/16 10:04:57;;;;;;;15.63;14.17;;;;;;;25.65;77.05;99999.22;5082244;28;20239;-69
2023/09/16 10:07:25;;;;;;;13.00;11.70;;;;;;;25.68;76.85;100004.13;5079159;28;20249;-69
2023/09/16 10:09:51;;;;;;;13.43;12.23;;;;;;;25.78;76.89;100006.75;5082790;28;20614;-68
2023/09/16 10:12:19;;;;;;;13.03;11.87;;;;;;;25.87;75.17;99996.91;5081458;28;20664;-67
2023/09/16 10:14:47;;;;;;;12.83;11.77;;;;;;;25.82;73.64;99997.75;5074945;28;20657;-70
2023/09/16 10:17:14;;;;;;;13.23;11.90;;;;;;;25.87;73.93;100003.16;5082693;28;20191;-71
2023/09/16 10:19:41;;;;;;;12.47;11.47;;;;;;;25.93;73.84;100002.00;5076531;28;20626;-69
2023/09/16 10:22:10;;;;;;;14.00;12.80;;;;;;;26.00;75.48;99991.66;5082633;28;20192;-69
2023/09/16 10:24:37;;;;;;;13.90;11.93;;;;;;;26.03;74.99;99995.72;5081607;28;20195;-68
2023/09/16 10:27:14;;;;;;;13.20;11.93;;;;;;;26.03;74.09;99988.38;5079916;28;20210;-69
2023/09/16 10:29:44;;;;;;;13.87;12.93;;;;;;;26.08;72.42;99995.66;5081786;28;20248;-67
2023/09/16 10:32:13;;;;;;;13.63;12.50;;;;;;;26.21;73.03;99987.66;5080579;28;20219;-72
2023/09/16 10:34:43;;;;;;;13.73;12.47;;;;;;;26.43;72.69;99985.28;5070955;28;20231;-69
2023/09/16 10:37:10;;;;;;;14.77;13.17;;;;;;;26.63;73.28;99985.13;5081006;28;20191;-69
2023/09/16 10:39:39;;;;;;;15.67;12.97;;;;;;;26.77;71.67;99986.06;5081273;28;20191;-69
2023/09/16 10:42:07;;;;;;;14.67;13.20;;;;;;;26.95;71.08;99987.22;5080526;28;20220;-68
2023/09/16 10:44:36;;;;;;;14.97;13.47;;;;;;;27.09;70.03;99980.75;5081149;28;20188;-69
2023/09/16 10:47:05;;;;;;;14.27;13.07;;;;;;;27.24;69.93;99986.03;5082375;28;20211;-69
2023/09/16 10:49:33;;;;;;;15.27;13.73;;;;;;;27.29;67.38;99987.91;5079536;28;20192;-68
2023/09/16 10:52:04;;;;;;;13.83;12.53;;;;;;;27.14;69.63;99985.31;5066050;28;20228;-73
2023/09/16 10:54:41;;;;;;;17.40;14.10;;;;;;;27.29;68.91;99969.63;5075156;28;20271;-68
2023/09/16 10:57:17;;;;;;;14.17;12.67;;;;;;;27.38;68.11;99977.94;5071233;28;20586;-67
2023/09/16 10:59:46;;;;;;;15.50;13.93;;;;;;;27.47;68.63;99973.44;5071663;28;20350;-67
2023/09/16 11:02:24;;;;;;;14.47;13.07;;;;;;;27.54;66.99;99979.34;5071678;28;20199;-69
2023/09/16 11:04:52;;;;;;;13.53;12.50;;;;;;;27.63;66.12;99978.41;5071313;28;20188;-72
2023/09/16 11:07:20;;;;;;;13.53;12.23;;;;;;;27.70;65.86;99973.38;5073697;28;20211;-73
2023/09/16 11:09:48;;;;;;;15.50;13.17;;;;;;;27.72;65.97;99968.44;5090543;28;20192;-72
2023/09/16 11:12:17;;;;;;;14.90;13.50;;;;;;;27.75;65.85;99961.56;5091426;28;20195;-73
2023/09/16 11:14:44;;;;;;;14.13;12.83;;;;;;;27.78;66.06;99963.72;5088302;28;20285;-72
2023/09/16 11:17:14;;;;;;;15.13;13.23;;;;;;;27.83;66.27;99955.47;5091022;28;20191;-72
2023/09/16 11:19:41;;;;;;;14.90;13.70;;;;;;;27.80;66.36;99954.09;5106221;28;20205;-74